createdAt,value
2022-11-16T00:01:26.217Z,1.30
2022-11-16T00:03:58.569Z,1.27
2022-11-16T00:06:29.148Z,1.35
2022-11-16T00:09:18.079Z,1.00
2022-11-16T00:11:49.912Z,1.27
2022-11-16T00:14:18.674Z,1.10
2022-11-16T00:16:49.775Z,1.10
2022-11-16T00:19:18.880Z,1.33
2022-11-16T00:21:47.784Z,0.80
2022-11-16T00:24:19.109Z,1.00
2022-11-16T00:26:50.220Z,0.80
2022-11-16T00:29:20.893Z,1.00
2022-11-16T00:31:51.090Z,0.77
2022-11-16T00:34:20.562Z,0.80
2022-11-16T00:36:49.686Z,0.90
2022-11-16T00:39:21.056Z,0.90
2022-11-16T00:41:51.917Z,1.00
2022-11-16T00:44:20.704Z,1.00
2022-11-16T00:46:49.651Z,1.10
2022-11-16T00:49:18.588Z,1.13
2022-11-16T00:51:47.203Z,1.50
2022-11-16T00:54:17.001Z,1.20
2022-11-16T00:56:45.652Z,0.90
2022-11-16T00:59:22.288Z,0.90
2022-11-16T01:01:50.801Z,0.75
2022-11-16T01:04:20.731Z,0.90
2022-11-16T01:06:49.595Z,0.88
2022-11-16T01:09:19.265Z,0.95
2022-11-16T01:12:05.458Z,0.70
2022-11-16T01:14:35.798Z,0.90
2022-11-16T01:17:05.897Z,1.00
2022-11-16T01:19:34.554Z,0.93
2022-11-16T01:22:03.444Z,0.70
2022-11-16T01:24:32.289Z,0.80
2022-11-16T01:27:01.034Z,0.80
2022-11-16T01:29:31.730Z,1.17
2022-11-16T01:32:02.702Z,0.80
2022-11-16T01:34:32.538Z,0.70
2022-11-16T01:37:01.499Z,0.80
2022-11-16T01:39:29.971Z,0.60
2022-11-16T01:41:58.458Z,0.63
2022-11-16T01:45:04.174Z,0.60
2022-11-16T01:47:34.727Z,0.60
2022-11-16T01:50:11.871Z,0.60
2022-11-16T01:52:47.120Z,0.82
2022-11-16T01:55:16.642Z,0.80
2022-11-16T01:57:47.678Z,0.80
2022-11-16T02:00:20.219Z,1.08
2022-11-16T02:02:50.640Z,0.90
2022-11-16T02:05:23.156Z,1.00
2022-11-16T02:08:23.815Z,0.93
2022-11-16T02:11:05.313Z,0.85
2022-11-16T02:13:47.008Z,0.75
2022-11-16T02:16:29.053Z,0.70
2022-11-16T02:19:10.233Z,0.55
2022-11-16T02:21:46.356Z,0.60
2022-11-16T02:24:45.057Z,0.70
2022-11-16T02:27:34.155Z,0.73
2022-11-16T02:30:06.506Z,0.70
2022-11-16T02:32:38.486Z,0.75
2022-11-16T02:35:15.298Z,0.60
2022-11-16T02:37:49.501Z,0.68
2022-11-16T02:40:22.257Z,0.40
2022-11-16T02:42:56.259Z,0.50
2022-11-16T02:45:30.856Z,0.57
2022-11-16T02:48:05.445Z,0.68
2022-11-16T02:50:35.494Z,0.60
2022-11-16T02:53:04.926Z,0.70
2022-11-16T02:55:36.231Z,0.60
2022-11-16T02:58:07.519Z,0.50
2022-11-16T03:00:46.284Z,0.60
2022-11-16T03:03:26.013Z,0.70
2022-11-16T03:05:57.816Z,0.52
2022-11-16T03:08:32.180Z,0.68
2022-11-16T03:11:23.256Z,0.70
2022-11-16T03:13:52.963Z,0.77
2022-11-16T03:16:29.212Z,0.60
2022-11-16T03:19:00.252Z,0.60
2022-11-16T03:21:36.061Z,0.50
2022-11-16T03:24:05.455Z,0.50
2022-11-16T03:26:44.658Z,0.55
2022-11-16T03:29:22.599Z,0.60
2022-11-16T03:31:58.255Z,0.77
2022-11-16T03:34:31.615Z,0.70
2022-11-16T03:37:04.452Z,0.75
2022-11-16T03:39:38.034Z,0.70
2022-11-16T03:42:13.917Z,0.60
2022-11-16T03:44:46.893Z,0.70
2022-11-16T03:47:19.696Z,0.63
2022-11-16T03:49:50.487Z,0.88
2022-11-16T03:52:19.734Z,0.80
2022-11-16T03:54:48.830Z,0.70
2022-11-16T03:57:18.775Z,0.70
2022-11-16T03:59:47.647Z,0.93
2022-11-16T04:02:16.281Z,0.90
2022-11-16T04:05:04.332Z,1.00
2022-11-16T04:07:49.754Z,0.98
2022-11-16T04:10:35.857Z,1.00
2022-11-16T04:13:22.966Z,1.10
2022-11-16T04:16:08.854Z,0.90
2022-11-16T04:19:02.879Z,1.20
2022-11-16T04:21:53.155Z,1.10
2022-11-16T04:24:33.215Z,1.35
2022-11-16T04:27:24.793Z,1.38
2022-11-16T04:30:00.980Z,1.40
2022-11-16T04:32:47.628Z,1.20
2022-11-16T04:35:41.890Z,1.20
2022-11-16T04:38:13.530Z,1.10
2022-11-16T04:40:43.800Z,1.20
2022-11-16T04:43:11.051Z,1.38
2022-11-16T04:45:56.926Z,1.10
2022-11-16T04:48:25.763Z,1.20
2022-11-16T04:50:54.407Z,1.10
2022-11-16T04:53:30.094Z,1.15
2022-11-16T04:56:01.177Z,1.20
2022-11-16T04:58:31.695Z,1.40
2022-11-16T05:01:02.005Z,1.30
2022-11-16T05:03:33.080Z,1.13
2022-11-16T05:06:03.745Z,1.27
2022-11-16T05:08:38.144Z,1.20
2022-11-16T05:11:08.348Z,1.20
2022-11-16T05:13:37.285Z,1.25
2022-11-16T05:16:07.181Z,1.08
2022-11-16T05:18:44.677Z,1.20
2022-11-16T05:21:17.079Z,1.40
2022-11-16T05:24:07.180Z,1.30
2022-11-16T05:26:38.913Z,1.40
2022-11-16T05:29:10.821Z,1.30
2022-11-16T05:31:40.782Z,1.50
2022-11-16T05:34:12.944Z,1.73
2022-11-16T05:36:44.445Z,1.40
2022-11-16T05:39:29.236Z,1.50
2022-11-16T05:42:00.531Z,1.60
2022-11-16T05:44:30.233Z,1.45
2022-11-16T05:46:59.954Z,1.60
2022-11-16T05:49:30.480Z,1.40
2022-11-16T05:52:00.230Z,1.63
2022-11-16T05:54:33.926Z,1.70
2022-11-16T05:57:02.686Z,1.38
2022-11-16T05:59:31.719Z,1.85
2022-11-16T06:02:04.151Z,1.58
2022-11-16T06:04:35.101Z,2.15
2022-11-16T06:07:05.142Z,1.70
2022-11-16T06:09:35.512Z,1.90
2022-11-16T06:12:04.585Z,1.90
2022-11-16T06:14:35.546Z,1.63
2022-11-16T06:45:03.105Z,1.77
2022-11-16T06:47:32.094Z,2.20
2022-11-16T06:50:01.090Z,2.05
2022-11-16T06:52:30.939Z,2.63
2022-11-16T06:54:59.481Z,2.45
2022-11-16T06:57:36.470Z,2.60
2022-11-16T07:00:12.258Z,2.30
2022-11-16T07:02:42.750Z,2.35
2022-11-16T07:05:15.400Z,2.63
2022-11-16T07:07:44.904Z,2.20
2022-11-16T07:10:18.680Z,2.40
2022-11-16T07:12:49.788Z,2.45
2022-11-16T07:15:20.287Z,2.65
2022-11-16T07:17:51.636Z,2.80
2022-11-16T07:20:22.592Z,2.90
2022-11-16T07:22:53.303Z,3.40
2022-11-16T07:25:23.327Z,3.03
2022-11-16T07:27:51.706Z,3.03
2022-11-16T07:30:21.906Z,3.20
2022-11-16T07:32:50.741Z,3.40
2022-11-16T07:35:20.634Z,3.40
2022-11-16T07:37:58.816Z,3.55
2022-11-16T07:40:27.396Z,3.53
2022-11-16T07:42:59.284Z,3.03
2022-11-16T07:45:29.059Z,3.40
2022-11-16T07:47:58.563Z,3.42
2022-11-16T07:50:26.923Z,4.10
2022-11-16T07:52:56.846Z,4.05
2022-11-16T07:55:34.309Z,3.78
2022-11-16T07:58:10.939Z,3.72
2022-11-16T08:00:47.288Z,3.88
2022-11-16T08:03:19.295Z,4.07
2022-11-16T08:06:00.771Z,4.75
2022-11-16T08:08:33.469Z,4.38
2022-11-16T08:11:10.624Z,4.82
2022-11-16T08:13:45.905Z,4.40
2022-11-16T08:16:19.760Z,3.85
2022-11-16T08:18:51.831Z,4.85
2022-11-16T08:21:24.514Z,4.20
2022-11-16T08:23:58.073Z,4.10
2022-11-16T08:26:31.838Z,3.50
2022-11-16T08:29:09.506Z,4.25
2022-11-16T08:31:40.097Z,4.47
2022-11-16T08:34:10.875Z,4.43
2022-11-16T08:36:40.628Z,4.25
2022-11-16T08:39:09.035Z,4.47
2022-11-16T08:41:45.133Z,4.05
2022-11-16T08:44:15.835Z,3.95
2022-11-16T08:46:45.921Z,3.60
2022-11-16T08:49:15.213Z,3.75
2022-11-16T08:51:43.759Z,3.50
2022-11-16T08:54:13.486Z,3.55
2022-11-16T08:56:42.160Z,3.70
2022-11-16T08:59:10.823Z,3.90
2022-11-16T09:01:42.277Z,4.15
2022-11-16T09:04:13.841Z,4.20
2022-11-16T09:06:42.617Z,4.22
2022-11-16T09:09:14.867Z,4.47
2022-11-16T09:11:43.997Z,3.70
2022-11-16T09:14:14.216Z,3.45
2022-11-16T09:16:42.745Z,3.60
2022-11-16T09:19:20.965Z,3.75
2022-11-16T09:21:50.888Z,3.67
2022-11-16T09:24:19.917Z,3.50
2022-11-16T09:26:48.378Z,3.90
2022-11-16T09:29:16.994Z,3.50
2022-11-16T09:31:46.334Z,4.53
2022-11-16T09:34:15.694Z,7.10
2022-11-16T09:36:45.789Z,8.18
2022-11-16T09:39:30.039Z,5.28
2022-11-16T09:42:08.654Z,5.60
2022-11-16T09:45:08.772Z,4.43
2022-11-16T09:47:46.553Z,5.18
2022-11-16T09:50:33.590Z,4.63
2022-11-16T09:53:15.486Z,5.00
2022-11-16T09:55:49.221Z,5.78
2022-11-16T09:58:23.982Z,5.22
2022-11-16T10:00:59.122Z,5.90
2022-11-16T10:03:29.900Z,5.82
2022-11-16T10:06:04.629Z,6.03
2022-11-16T10:08:44.878Z,6.13
2022-11-16T10:11:33.655Z,5.53
2022-11-16T10:14:21.016Z,5.80
2022-11-16T10:16:58.096Z,5.05
2022-11-16T10:19:39.853Z,4.97
2022-11-16T10:22:23.585Z,4.65
2022-11-16T10:24:59.119Z,5.25
2022-11-16T10:27:39.912Z,5.50
2022-11-16T10:30:12.507Z,4.30
2022-11-16T10:32:48.911Z,3.05
2022-11-16T10:35:21.434Z,3.40
2022-11-16T10:37:53.268Z,2.53
2022-11-16T10:40:27.584Z,3.05
2022-11-16T10:43:07.414Z,2.85
2022-11-16T10:45:41.464Z,2.20
2022-11-16T10:48:32.513Z,2.65
2022-11-16T10:51:01.594Z,2.60
2022-11-16T10:53:34.092Z,3.45
2022-11-16T10:56:16.240Z,3.17
2022-11-16T10:58:58.386Z,3.58
2022-11-16T11:01:33.946Z,2.53
2022-11-16T11:04:20.727Z,2.67
2022-11-16T11:06:52.916Z,2.15
2022-11-16T11:09:31.318Z,2.80
2022-11-16T11:12:41.504Z,3.17
2022-11-16T11:15:26.526Z,2.53
2022-11-16T11:18:15.024Z,2.20
2022-11-16T11:20:46.226Z,2.10
2022-11-16T11:23:19.302Z,2.40
2022-11-16T11:25:56.699Z,2.20
2022-11-16T11:28:30.398Z,2.53
2022-11-16T11:31:04.048Z,2.90
2022-11-16T11:33:36.979Z,2.50
2022-11-16T11:36:13.289Z,2.30
2022-11-16T11:38:58.576Z,2.28
2022-11-16T11:41:30.069Z,2.00
2022-11-16T11:44:17.364Z,2.40
2022-11-16T11:49:52.474Z,2.42
2022-11-16T11:52:26.753Z,2.10
2022-11-16T11:54:57.903Z,1.90
2022-11-16T11:57:28.022Z,1.80
2022-11-16T11:59:58.169Z,1.80
2022-11-16T12:02:42.249Z,1.58
2022-11-16T12:05:45.830Z,1.40
2022-11-16T12:08:36.208Z,1.33
2022-11-16T12:11:15.420Z,1.90
2022-11-16T13:20:03.002Z,1.70
2022-11-16T13:22:35.565Z,1.40
2022-11-16T13:25:15.760Z,1.33
2022-11-16T13:27:51.297Z,1.60
2022-11-16T13:30:23.698Z,1.30
2022-11-16T13:33:13.349Z,1.60
2022-11-16T13:35:43.922Z,1.35
2022-11-16T13:38:52.646Z,1.40
2022-11-16T13:41:35.495Z,2.00
2022-11-16T13:44:06.490Z,1.30
2022-11-16T13:46:55.945Z,1.45
2022-11-16T13:56:44.805Z,1.70
2022-11-16T15:07:17.301Z,1.65
2022-11-16T15:17:33.198Z,2.00
2022-11-16T15:20:41.922Z,1.70
2022-11-16T15:23:40.850Z,1.98
2022-11-16T15:26:13.274Z,2.72
2022-11-16T15:28:48.740Z,2.50
2022-11-16T15:31:22.412Z,2.13
2022-11-16T15:33:51.352Z,2.53
2022-11-16T15:36:25.625Z,3.38
2022-11-16T15:38:59.124Z,3.35
2022-11-16T15:41:29.704Z,2.72
2022-11-16T15:44:16.597Z,2.72
2022-11-16T15:46:48.778Z,2.65
2022-11-16T15:49:29.886Z,3.72
2022-11-16T15:52:00.154Z,3.33
2022-11-16T15:54:51.763Z,3.75
2022-11-16T15:57:21.621Z,4.32
2022-11-16T16:10:33.241Z,4.40
2022-11-16T16:13:04.358Z,4.50
2022-11-16T16:15:36.910Z,5.55
2022-11-16T16:18:14.604Z,4.88
2022-11-16T16:20:50.119Z,4.90
2022-11-16T16:23:27.049Z,5.20
2022-11-16T16:25:57.033Z,6.32
2022-11-16T16:28:25.522Z,6.30
2022-11-16T16:30:56.971Z,5.78
2022-11-16T16:33:29.326Z,5.63
2022-11-16T16:35:58.137Z,5.57
2022-11-16T16:38:27.101Z,5.70
2022-11-16T16:41:03.111Z,6.13
2022-11-16T16:43:33.464Z,8.82
2022-11-16T16:46:03.752Z,8.80
2022-11-16T16:48:32.763Z,8.80
2022-11-16T16:51:01.512Z,7.15
2022-11-16T16:53:29.887Z,8.32
2022-11-16T16:56:00.206Z,8.18
2022-11-16T16:58:28.778Z,9.30
2022-11-16T17:48:22.945Z,15.32
2022-11-16T17:50:52.036Z,15.15
2022-11-16T17:53:20.572Z,22.90
2022-11-16T17:55:49.480Z,20.73
2022-11-16T17:58:18.101Z,19.55
2022-11-16T18:00:50.729Z,18.48
2022-11-16T18:03:20.666Z,15.23
2022-11-16T18:05:50.752Z,15.25
2022-11-16T18:08:20.052Z,11.48
2022-11-16T18:10:51.874Z,10.68
2022-11-16T18:13:23.252Z,10.13
2022-11-16T18:15:53.111Z,10.32
2022-11-16T18:18:24.419Z,11.73
2022-11-16T18:20:56.498Z,14.10
2022-11-16T18:23:26.159Z,13.88
2022-11-16T18:25:54.995Z,13.00
2022-11-16T18:28:23.626Z,11.55
2022-11-16T18:30:53.454Z,10.65
2022-11-16T18:33:24.317Z,10.73
2022-11-16T18:35:57.751Z,10.35
2022-11-16T18:38:26.341Z,10.40
2022-11-16T18:41:08.662Z,8.82
2022-11-16T18:43:37.957Z,12.98
2022-11-16T18:46:14.657Z,17.05
2022-11-16T18:48:46.916Z,10.80
2022-11-16T18:51:19.207Z,8.27
2022-11-16T18:53:49.244Z,8.68
2022-11-16T18:56:20.604Z,12.27
2022-11-16T18:58:50.778Z,12.02
2022-11-16T19:01:24.611Z,10.35
2022-11-16T19:03:55.097Z,10.90
2022-11-16T19:06:26.764Z,11.68
2022-11-16T19:08:59.577Z,16.27
2022-11-16T19:11:30.050Z,14.65
2022-11-16T19:14:01.085Z,14.48
2022-11-16T19:16:30.446Z,13.10
2022-11-16T19:19:05.580Z,12.07
2022-11-16T19:21:42.349Z,16.10
2022-11-16T19:24:11.993Z,22.40
2022-11-16T19:26:46.377Z,20.20
2022-11-16T19:31:56.628Z,21.23
2022-11-16T19:34:30.404Z,17.85
2022-11-16T19:37:03.084Z,17.08
2022-11-16T19:39:31.449Z,14.93
2022-11-16T19:42:00.081Z,16.98
2022-11-16T19:44:28.545Z,13.38
2022-11-16T19:46:57.760Z,14.75
2022-11-16T19:49:26.263Z,17.27
2022-11-16T19:51:54.878Z,20.17
2022-11-16T19:54:24.922Z,27.98
2022-11-16T19:56:55.173Z,19.10
2022-11-16T19:59:23.971Z,15.90
2022-11-16T20:01:53.068Z,31.05
2022-11-16T20:04:23.320Z,33.17
2022-11-16T20:06:53.011Z,24.02
2022-11-16T20:09:22.024Z,23.80
2022-11-16T20:11:52.455Z,22.02
2022-11-16T20:14:21.292Z,21.92
2022-11-16T20:16:50.746Z,22.92
2022-11-16T20:19:20.723Z,23.63
2022-11-16T20:21:49.097Z,22.88
2022-11-16T20:24:19.253Z,26.10
2022-11-16T20:26:49.300Z,23.60
2022-11-16T20:29:20.519Z,29.73
2022-11-16T20:31:49.171Z,29.30
2022-11-16T20:34:20.731Z,30.40
2022-11-16T20:36:51.525Z,29.25
2022-11-16T20:39:21.711Z,23.00
2022-11-16T20:41:50.494Z,16.83
2022-11-16T20:44:22.595Z,13.63
2022-11-16T20:46:52.666Z,19.83
2022-11-16T20:49:21.373Z,22.63
2022-11-16T20:51:51.423Z,23.40
2022-11-16T20:54:20.075Z,22.95
2022-11-16T20:56:50.386Z,16.33
2022-11-16T20:59:20.825Z,16.58
2022-11-16T21:01:53.724Z,18.27
2022-11-16T21:04:22.149Z,18.08
2022-11-16T21:06:50.960Z,24.08
2022-11-16T21:09:22.966Z,23.33
2022-11-16T21:12:05.248Z,17.58
2022-11-16T21:14:35.414Z,9.80
2022-11-16T21:17:04.046Z,9.15
2022-11-16T21:19:32.733Z,11.00
2022-11-16T21:22:01.497Z,11.35
2022-11-16T21:24:32.004Z,11.57
2022-11-16T21:27:00.581Z,13.43
2022-11-16T21:29:29.375Z,15.32
2022-11-16T21:31:59.567Z,14.65
2022-11-16T21:34:34.646Z,15.50
2022-11-16T21:37:05.774Z,20.88
2022-11-16T21:39:34.305Z,11.38
2022-11-16T21:42:02.922Z,11.48
2022-11-16T21:44:42.126Z,11.77
2022-11-16T21:47:13.782Z,10.40
2022-11-16T21:50:02.358Z,12.75
2022-11-16T21:52:30.741Z,7.95
2022-11-16T21:55:02.280Z,7.43
2022-11-16T21:57:31.217Z,8.63
2022-11-16T22:00:01.160Z,8.00
2022-11-16T22:02:31.426Z,5.47
2022-11-16T22:05:17.508Z,3.95
2022-11-16T22:07:46.074Z,3.97
2022-11-16T22:10:14.592Z,4.03
2022-11-16T22:12:42.909Z,5.00
2022-11-16T22:15:12.525Z,4.93
2022-11-16T22:17:45.168Z,4.90
2022-11-16T22:20:13.713Z,6.53
2022-11-16T22:22:42.265Z,6.53
2022-11-16T22:25:11.720Z,7.50
2022-11-16T22:28:05.592Z,6.50
2022-11-16T22:30:29.313Z,6.40
2022-11-16T22:32:59.125Z,6.35
2022-11-16T22:35:27.914Z,10.05
2022-11-16T22:37:56.333Z,12.25
2022-11-16T22:40:25.183Z,12.00
2022-11-16T22:42:57.431Z,12.32
2022-11-16T22:45:26.963Z,9.40
2022-11-16T22:47:56.742Z,6.53
2022-11-16T22:50:26.702Z,6.13
2022-11-16T22:52:55.087Z,5.78
2022-11-16T22:55:23.777Z,6.65
2022-11-16T22:57:52.810Z,6.32
2022-11-16T23:00:21.662Z,6.45
2022-11-16T23:02:50.500Z,7.30
2022-11-16T23:05:19.195Z,8.23
2022-11-16T23:07:49.382Z,7.63
2022-11-16T23:10:18.540Z,8.13
2022-11-16T23:13:13.216Z,7.75
2022-11-16T23:15:50.641Z,9.35
2022-11-16T23:18:20.224Z,9.80
2022-11-16T23:21:06.080Z,10.40
2022-11-16T23:23:53.392Z,11.52
2022-11-16T23:26:42.755Z,13.95
2022-11-16T23:29:12.729Z,16.30
2022-11-16T23:31:41.316Z,17.08
2022-11-16T23:34:09.714Z,17.45
2022-11-16T23:36:38.396Z,18.52
2022-11-16T23:39:08.596Z,19.50
2022-11-16T23:41:54.946Z,18.25
2022-11-16T23:44:23.533Z,16.45
2022-11-16T23:46:52.960Z,17.50
2022-11-16T23:49:21.573Z,16.15
2022-11-16T23:51:50.029Z,17.13
2022-11-16T23:54:20.195Z,16.67
2022-11-16T23:56:48.665Z,15.65
2022-11-16T23:59:17.378Z,15.73
